Bishopton, United Kingdom
Current Conditions -  °F | °C
As of 12:50 PM on Saturday 25 Oct 2014 (Local Time) from EGPF Reporting Station
Rain Showers Rain Showers  
Wind Chill: 55°   Ceiling: Unl
Heat Index: 55°   Visibility: 6mi
Dew Point: 48°   Wind: 24mph
Humidity: 77%   Direction: 230°SW
Pressure: 29.68"   Gusts: NA
Location:  55.9°N, 4.5°W
Report Text: EGPF 251150Z 23021KT 9999 VCSH FEW024 SCT034 13/09 Q1005
Loading
Personal Weather Stations






























Interactive Weather Map
Tropical Storm Tracking
New forecast layout! Learn more

10-Day Weather Forecast

Advertisements
Track Severe Weather on mobile